Weather at (Non-existant/spam)Hit Club

Public forecast

Using degrees Celsius for public forecast. Weather courtesy of forecast.io.

Closest aviation weather report (METAR) to (Non-existant/spam)Hit Club

Closest report is (Duplicate}Maharishi Valmiki International Airport, 2.2 nm (4.1 km) WSW.

(retrieved 0 seconds ago)

Closest aviation forecast (TAF) to (Non-existant/spam)Hit Club

Forecast is more than 12 hours old.

Closest forecast is Bangoka International Airport, 1,518.9 nm (2,813.0 km) E.

2024/04/24 12:00 (retrieved 14 hours ago)

TAF FZIC 241100Z 2412/2518 24008KT 7000 SCT032 FEW038CB BECMG 2415/2417 00000KT NSC BECMG 2500/2502 2000 BR FM250600 12006KT 7000 SCT010 BECMG 2509/2511 FEW026 FEW034CB